Marine Rouge — JG5115 — position and weather

sailwx.info

Track history (hours):
 
Tides and Currents Weather Stations Pressure Air Temp Water Temp Dewpoint Dewpoint Depression Visibility Wind Speed Wind Dir Waves Ship Positions

Marine Rouge

Last reported at 2017-Dec-18 11:57 UTC. Time now 2017-Dec-18 14:56 UTC.
Position N 35°27' E 139°39'.

Length 52 m; draft 2.8 m.

Type: Passenger vessel. MMSI: 431000518.

Date/timePositionNaut miles runAvg speedWind from/ knotsBaromVisibWave heightAir tempDewpointWater temp
2017-Dec-18 11:57N 35°27' E 139°39'1 3.0
2017-Dec-18 11:30N 35°28' E 139°40'2 4.3
2017-Dec-18 11:00N 35°27' E 139°42'3 5.8
2017-Dec-18 10:31N 35°27' E 139°39'1 1.2
2017-Dec-18 10:00N 35°27' E 139°39'0 0.0
2017-Dec-18 09:30N 35°27' E 139°39'0 0.0
2017-Dec-18 09:00N 35°27' E 139°39'0 0.6
2017-Dec-18 08:30N 35°27' E 139°39'3 5.2
2017-Dec-18 08:00N 35°28' E 139°42'3 5.4
2017-Dec-18 07:30N 35°27' E 139°39'1 1.3
2017-Dec-18 07:00N 35°27' E 139°39'0 0.0
2017-Dec-18 06:30N 35°27' E 139°39'1 1.1
2017-Dec-18 06:00N 35°27' E 139°39'1 1.1
2017-Dec-18 05:30N 35°27' E 139°39'0 0.0
2017-Dec-18 05:00N 35°27' E 139°39'1 3.0
2017-Dec-18 04:30N 35°28' E 139°40'2 3.7
2017-Dec-18 04:00N 35°28' E 139°42'3 6.2
2017-Dec-18 03:30N 35°27' E 139°39'1 1.0
2017-Dec-18 03:00N 35°27' E 139°39'0 0.0
2017-Dec-18 02:30N 35°27' E 139°39'0 0.0
2017-Dec-18 02:00N 35°27' E 139°39'0 0.0
2017-Dec-18 01:30N 35°27' E 139°39'0 0.0
2017-Dec-18 01:00N 35°27' E 139°39'0 0.0
2017-Dec-18 00:30N 35°27' E 139°39'0 0.0
2017-Dec-17 11:58N 35°27' E 139°39'1 2.9
2017-Dec-17 11:30N 35°28' E 139°40'2 4.1
2017-Dec-17 11:01N 35°27' E 139°42'3 5.7
2017-Dec-17 10:31N 35°27' E 139°39'1 1.1
2017-Dec-17 10:00N 35°27' E 139°39'0 0.0
2017-Dec-17 09:30N 35°27' E 139°39'0 0.0
2017-Dec-17 09:00N 35°27' E 139°39'0 0.0
2017-Dec-17 08:30N 35°27' E 139°39'2 3.7
2017-Dec-17 08:00N 35°28' E 139°41'2 3.6
2017-Dec-17 07:30N 35°27' E 139°42'2 4.5
2017-Dec-17 07:00N 35°27' E 139°39'0 0.0
2017-Dec-17 06:30N 35°27' E 139°39'1 2.5
2017-Dec-17 06:00N 35°27' E 139°41'1 2.5
2017-Dec-17 05:30N 35°27' E 139°39'0 0.0
2017-Dec-17 05:00N 35°27' E 139°39'0 0.0
2017-Dec-17 04:30N 35°27' E 139°39'2 4.5
2017-Dec-17 04:00N 35°28' E 139°41'1 2.7
2017-Dec-17 03:30N 35°27' E 139°40'1 1.8
2017-Dec-17 03:00N 35°27' E 139°39'0 0.0
2017-Dec-17 02:30N 35°27' E 139°39'0 0.0
2017-Dec-17 02:00N 35°27' E 139°39'0 0.0
2017-Dec-17 01:30N 35°27' E 139°39'0 0.0
2017-Dec-17 01:00N 35°27' E 139°39'0 0.0
2017-Dec-16 11:58N 35°27' E 139°39'1 2.3
2017-Dec-16 11:30N 35°28' E 139°39'2 3.9
2017-Dec-16 11:01N 35°28' E 139°41'1 2.7
2017-Dec-16 10:30N 35°27' E 139°41'1 2.6
2017-Dec-16 10:01N 35°27' E 139°39'0 0.0
2017-Dec-16 09:30N 35°27' E 139°39'0 0.0
2017-Dec-16 09:00N 35°27' E 139°39'0 0.0
2017-Dec-16 08:31N 35°27' E 139°39'1 2.4
2017-Dec-16 08:01N 35°28' E 139°39'3 6.1
2017-Dec-16 07:31N 35°28' E 139°42'3 5.8
2017-Dec-16 07:01N 35°27' E 139°39'0 0.0
2017-Dec-16 06:31N 35°27' E 139°39'1 2.7
2017-Dec-16 06:01N 35°27' E 139°41'1 2.7
2017-Dec-16 05:31N 35°27' E 139°39'1 1.0
2017-Dec-16 05:01N 35°27' E 139°39'1 1.0
2017-Dec-16 04:30N 35°27' E 139°39'3 6.0
2017-Dec-16 04:01N 35°28' E 139°43'3 6.4
2017-Dec-16 03:30N 35°27' E 139°39'1 1.0
2017-Dec-16 03:01N 35°27' E 139°39'0 0.0
2017-Dec-16 02:31N 35°27' E 139°39'0 0.0
2017-Dec-16 02:01N 35°27' E 139°39'0 0.0
2017-Dec-16 01:31N 35°27' E 139°39'0 0.0
2017-Dec-16 01:01N 35°27' E 139°39'0 0.0
2017-Dec-16 00:31N 35°27' E 139°39'0 0.0
2017-Dec-15 12:00N 35°27' E 139°39'2 3.7
2017-Dec-15 11:31N 35°28' E 139°41'2 3.7
2017-Dec-15 11:01N 35°27' E 139°42'3 5.6
2017-Dec-15 10:30N 35°27' E 139°39'1 1.4
2017-Dec-15 10:01N 35°27' E 139°39'0 0.0
2017-Dec-15 09:31N 35°27' E 139°39'0 0.0
2017-Dec-15 09:00N 35°27' E 139°39'0 0.0
2017-Dec-15 08:30N 35°27' E 139°39'3 6.1
2017-Dec-15 08:01N 35°28' E 139°43'3 6.6
2017-Dec-15 07:31N 35°27' E 139°39'1 1.0
2017-Dec-15 07:00N 35°27' E 139°39'0 0.0
2017-Dec-15 06:31N 35°27' E 139°39'3 5.9
2017-Dec-15 06:00N 35°28' E 139°43'3 5.9
2017-Dec-15 05:30N 35°27' E 139°39'0 0.0
2017-Dec-15 05:01N 35°27' E 139°39'0 0.0
2017-Dec-15 04:31N 35°27' E 139°39'3 5.7
2017-Dec-15 04:01N 35°28' E 139°42'3 1.9
2017-Dec-15 02:31N 35°27' E 139°39'0 0.0
2017-Dec-15 01:01N 35°27' E 139°39'0 0.0
2017-Dec-15 00:31N 35°27' E 139°39'0 0.0
2017-Dec-14 11:58N 35°27' E 139°39'1 1.7
2017-Dec-14 11:30N 35°28' E 139°39'3 5.2
2017-Dec-14 11:00N 35°28' E 139°42'2 4.6
2017-Dec-14 10:31N 35°27' E 139°40'1 1.5
2017-Dec-14 10:00N 35°27' E 139°39'0 0.1
2017-Dec-14 09:30N 35°27' E 139°39'0 0.1
2017-Dec-14 09:00N 35°27' E 139°39'0 0.0
2017-Dec-14 08:30N 35°27' E 139°39'0 0.0
2017-Dec-14 08:00N 35°27' E 139°39'3 5.8
2017-Dec-14 07:31N 35°28' E 139°42'3 5.8
2017-Dec-14 07:00N 35°27' E 139°39'0 0.0
2017-Dec-14 06:31N 35°27' E 139°39'3 5.7
2017-Dec-14 06:00N 35°28' E 139°42'3 5.7
2017-Dec-14 05:30N 35°27' E 139°39'0 0.0
2017-Dec-14 05:01N 35°27' E 139°39'0 0.0
2017-Dec-14 04:30N 35°27' E 139°39'2 4.1
2017-Dec-14 04:00N 35°28' E 139°41'1 2.0
2017-Dec-14 03:31N 35°27' E 139°40'1 2.2
2017-Dec-14 03:00N 35°27' E 139°39'0 0.0
2017-Dec-14 02:30N 35°27' E 139°39'0 0.0
2017-Dec-14 02:00N 35°27' E 139°39'0 0.0
2017-Dec-14 01:30N 35°27' E 139°39'0 0.0
2017-Dec-14 01:00N 35°27' E 139°39'0 0.0
2017-Dec-14 00:30N 35°27' E 139°39'0 0.0
2017-Dec-13 11:58N 35°27' E 139°39'1 1.9
2017-Dec-13 11:31N 35°28' E 139°39'3 5.2
2017-Dec-13 11:01N 35°28' E 139°42'2 3.5
2017-Dec-13 10:31N 35°27' E 139°40'1 2.3
2017-Dec-13 10:01N 35°27' E 139°39'0 0.0
2017-Dec-13 09:30N 35°27' E 139°39'0 0.0
2017-Dec-13 09:01N 35°27' E 139°39'0 0.0
2017-Dec-13 08:30N 35°27' E 139°39'3 5.7
2017-Dec-13 08:01N 35°27' E 139°42'3 6.2
2017-Dec-13 07:31N 35°27' E 139°39'1 1.0
2017-Dec-13 07:01N 35°27' E 139°39'0 0.0
2017-Dec-13 06:31N 35°27' E 139°39'3 5.8
2017-Dec-13 06:01N 35°28' E 139°42'3 5.7
2017-Dec-13 05:30N 35°27' E 139°39'0 0.0
2017-Dec-13 05:00N 35°27' E 139°39'0 0.0
2017-Dec-13 04:30N 35°27' E 139°39'3 5.8
2017-Dec-13 04:01N 35°28' E 139°42'3 5.6
2017-Dec-13 03:30N 35°27' E 139°39'1 1.3
2017-Dec-13 03:01N 35°27' E 139°39'0 0.0
2017-Dec-13 02:31N 35°27' E 139°39'0 0.0
2017-Dec-13 02:01N 35°27' E 139°39'0 0.0
2017-Dec-13 01:31N 35°27' E 139°39'0 0.0
2017-Dec-13 01:01N 35°27' E 139°39'0 0.0
2017-Dec-13 00:31N 35°27' E 139°39'0 0.0
2017-Dec-13 00:01N 35°27' E 139°39'0 0.0
2017-Dec-12 11:58N 35°27' E 139°39'1 2.7
2017-Dec-12 11:31N 35°28' E 139°40'2 4.0
2017-Dec-12 11:00N 35°27' E 139°42'3 5.6
2017-Dec-12 10:31N 35°27' E 139°39'1 1.2
2017-Dec-12 10:00N 35°27' E 139°39'0 0.0
2017-Dec-12 09:30N 35°27' E 139°39'0 0.8
2017-Dec-12 09:00N 35°27' E 139°39'0 0.8
2017-Dec-12 08:31N 35°27' E 139°39'3 5.7
2017-Dec-12 08:00N 35°28' E 139°42'3 5.7
2017-Dec-12 07:31N 35°27' E 139°39'1 1.1
2017-Dec-12 07:01N 35°27' E 139°39'0 0.0
2017-Dec-12 06:30N 35°27' E 139°39'3 5.7
2017-Dec-12 06:00N 35°28' E 139°42'3 5.6
2017-Dec-12 05:30N 35°27' E 139°39'0 0.4
2017-Dec-12 05:01N 35°27' E 139°39'0 0.4
2017-Dec-12 04:30N 35°27' E 139°39'3 6.0
2017-Dec-12 04:01N 35°28' E 139°43'3 6.5
2017-Dec-12 03:31N 35°27' E 139°39'1 1.0
2017-Dec-12 03:01N 35°27' E 139°39'0 0.0
2017-Dec-12 02:30N 35°27' E 139°39'0 0.0
2017-Dec-12 02:00N 35°27' E 139°39'0 0.0
2017-Dec-12 01:30N 35°27' E 139°39'0 0.0
2017-Dec-12 01:01N 35°27' E 139°39'0 0.0
2017-Dec-12 00:30N 35°27' E 139°39'0 0.0
2017-Dec-11 11:56N 35°27' E 139°39'1 2.6
2017-Dec-11 11:30N 35°28' E 139°39'0 0.8
2017-Dec-11 11:00N 35°28' E 139°39'1 1.2
2017-Dec-11 10:30N 35°28' E 139°40'1 2.6
2017-Dec-11 10:00N 35°27' E 139°39'0 0.0
2017-Dec-11 09:30N 35°27' E 139°39'0 0.0
2017-Dec-11 09:00N 35°27' E 139°39'0 0.0
2017-Dec-11 08:30N 35°27' E 139°39'1 2.3
2017-Dec-11 08:01N 35°28' E 139°39'1 2.4
2017-Dec-11 07:30N 35°27' E 139°40'1 1.9
2017-Dec-11 07:00N 35°27' E 139°39'0 0.0
2017-Dec-11 06:30N 35°27' E 139°39'1 2.2
2017-Dec-11 06:00N 35°28' E 139°40'1 2.2
2017-Dec-11 05:30N 35°27' E 139°39'0 0.0
2017-Dec-11 05:00N 35°27' E 139°39'0 0.0
2017-Dec-11 04:31N 35°27' E 139°39'1 2.1
2017-Dec-11 04:00N 35°28' E 139°40'1 1.5
2017-Dec-11 03:30N 35°27' E 139°39'1 1.5
2017-Dec-11 03:00N 35°27' E 139°39'0 0.0
2017-Dec-11 02:30N 35°27' E 139°39'0 0.0
2017-Dec-11 02:00N 35°27' E 139°39'0 0.0
2017-Dec-11 01:30N 35°27' E 139°39'0 0.0
2017-Dec-11 01:00N 35°27' E 139°39'0 0.0
2017-Dec-11 00:30N 35°27' E 139°39'0 0.0
2017-Dec-10 11:57N 35°27' E 139°39'1 2.3
2017-Dec-10 11:30N 35°28' E 139°39'1 2.6
2017-Dec-10 11:00N 35°27' E 139°40'1 2.3
2017-Dec-10 10:30N 35°28' E 139°39'1 1.7
2017-Dec-10 10:00N 35°27' E 139°39'0 0.0
2017-Dec-10 09:30N 35°27' E 139°39'0 0.0
2017-Dec-10 09:00N 35°27' E 139°39'0 0.0
2017-Dec-10 08:31N 35°27' E 139°39'1 2.1
2017-Dec-10 08:00N 35°28' E 139°39'3 5.9
2017-Dec-10 07:30N 35°28' E 139°42'3 5.7
2017-Dec-10 07:00N 35°27' E 139°39'0 0.0
2017-Dec-10 06:30N 35°27' E 139°39'3 5.7
2017-Dec-10 06:00N 35°28' E 139°42'3 5.7
2017-Dec-10 05:30N 35°27' E 139°39'0 0.0
2017-Dec-10 05:00N 35°27' E 139°39'0 0.2
2017-Dec-10 04:30N 35°27' E 139°39'3 5.7
2017-Dec-10 04:01N 35°28' E 139°43'3 6.2
2017-Dec-10 03:30N 35°27' E 139°39'1 1.0
2017-Dec-10 03:00N 35°27' E 139°39'0 0.0
2017-Dec-10 02:30N 35°27' E 139°39'0 0.0
2017-Dec-10 02:00N 35°27' E 139°39'0 0.0
2017-Dec-10 01:30N 35°27' E 139°39'0 0.0
2017-Dec-10 01:00N 35°27' E 139°39'0 0.0
2017-Dec-10 00:30N 35°27' E 139°39'0 0.0
2017-Dec-09 12:35N 35°27' E 139°39'0 3.2
2017-Dec-09 12:30N 35°27' E 139°39'0 0.5
2017-Dec-09 12:00N 35°27' E 139°39'1 2.3
2017-Dec-09 11:30N 35°28' E 139°40'2 4.0
2017-Dec-09 11:00N 35°27' E 139°42'3 5.3
2017-Dec-09 10:30N 35°27' E 139°39'1 1.3
2017-Dec-09 10:01N 35°27' E 139°39'0 0.0
2017-Dec-09 09:30N 35°27' E 139°39'0 0.0
2017-Dec-09 09:00N 35°27' E 139°39'0 0.0
2017-Dec-09 08:30N 35°27' E 139°39'1 2.1
2017-Dec-09 08:00N 35°28' E 139°39'3 5.4
2017-Dec-09 07:30N 35°28' E 139°42'3 5.7
2017-Dec-09 07:00N 35°27' E 139°39'0 0.0
2017-Dec-09 06:31N 35°27' E 139°39'1 2.0
2017-Dec-09 06:00N 35°28' E 139°39'1 2.0
2017-Dec-09 05:31N 35°27' E 139°39'0 1.0
2017-Dec-09 05:01N 35°27' E 139°39'0 1.0
2017-Dec-09 04:31N 35°27' E 139°39'3 5.6
2017-Dec-09 04:00N 35°28' E 139°42'3 5.9
2017-Dec-09 03:30N 35°27' E 139°39'1 1.0
2017-Dec-09 03:01N 35°27' E 139°39'0 0.0
2017-Dec-09 02:31N 35°27' E 139°39'0 0.0
2017-Dec-09 02:00N 35°27' E 139°39'0 0.0
2017-Dec-09 01:30N 35°27' E 139°39'0 0.0
2017-Dec-09 01:00N 35°27' E 139°39'0 0.0
2017-Dec-09 00:30N 35°27' E 139°39'0 0.0
2017-Dec-09 00:00N 35°27' E 139°39'  
Track history (hours):
 
Tides and Currents Weather Stations Pressure Air Temp Water Temp Dewpoint Dewpoint Depression Visibility Wind Speed Wind Dir Waves Ship Positions

Marine Rouge

Last reported at 2017-Dec-18 11:57 UTC. Time now 2017-Dec-18 14:56 UTC.
Position N 35°27' E 139°39'.

Length 52 m; draft 2.8 m.

Type: Passenger vessel. MMSI: 431000518.

Date/timePositionNaut miles runAvg speedWind from/ knotsBaromVisibWave heightAir tempDewpointWater temp
2017-Dec-18 11:57N 35°27' E 139°39'1 3.0
2017-Dec-18 11:30N 35°28' E 139°40'2 4.3
2017-Dec-18 11:00N 35°27' E 139°42'3 5.8
2017-Dec-18 10:31N 35°27' E 139°39'1 1.2
2017-Dec-18 10:00N 35°27' E 139°39'0 0.0
2017-Dec-18 09:30N 35°27' E 139°39'0 0.0
2017-Dec-18 09:00N 35°27' E 139°39'0 0.6
2017-Dec-18 08:30N 35°27' E 139°39'3 5.2
2017-Dec-18 08:00N 35°28' E 139°42'3 5.4
2017-Dec-18 07:30N 35°27' E 139°39'1 1.3
2017-Dec-18 07:00N 35°27' E 139°39'0 0.0
2017-Dec-18 06:30N 35°27' E 139°39'1 1.1
2017-Dec-18 06:00N 35°27' E 139°39'1 1.1
2017-Dec-18 05:30N 35°27' E 139°39'0 0.0
2017-Dec-18 05:00N 35°27' E 139°39'1 3.0
2017-Dec-18 04:30N 35°28' E 139°40'2 3.7
2017-Dec-18 04:00N 35°28' E 139°42'3 6.2
2017-Dec-18 03:30N 35°27' E 139°39'1 1.0
2017-Dec-18 03:00N 35°27' E 139°39'0 0.0
2017-Dec-18 02:30N 35°27' E 139°39'0 0.0
2017-Dec-18 02:00N 35°27' E 139°39'0 0.0
2017-Dec-18 01:30N 35°27' E 139°39'0 0.0
2017-Dec-18 01:00N 35°27' E 139°39'0 0.0
2017-Dec-18 00:30N 35°27' E 139°39'0 0.0
2017-Dec-17 11:58N 35°27' E 139°39'1 2.9
2017-Dec-17 11:30N 35°28' E 139°40'2 4.1
2017-Dec-17 11:01N 35°27' E 139°42'3 5.7
2017-Dec-17 10:31N 35°27' E 139°39'1 1.1
2017-Dec-17 10:00N 35°27' E 139°39'0 0.0
2017-Dec-17 09:30N 35°27' E 139°39'0 0.0
2017-Dec-17 09:00N 35°27' E 139°39'0 0.0
2017-Dec-17 08:30N 35°27' E 139°39'2 3.7
2017-Dec-17 08:00N 35°28' E 139°41'2 3.6
2017-Dec-17 07:30N 35°27' E 139°42'2 4.5
2017-Dec-17 07:00N 35°27' E 139°39'0 0.0
2017-Dec-17 06:30N 35°27' E 139°39'1 2.5
2017-Dec-17 06:00N 35°27' E 139°41'1 2.5
2017-Dec-17 05:30N 35°27' E 139°39'0 0.0
2017-Dec-17 05:00N 35°27' E 139°39'0 0.0
2017-Dec-17 04:30N 35°27' E 139°39'2 4.5
2017-Dec-17 04:00N 35°28' E 139°41'1 2.7
2017-Dec-17 03:30N 35°27' E 139°40'1 1.8
2017-Dec-17 03:00N 35°27' E 139°39'0 0.0
2017-Dec-17 02:30N 35°27' E 139°39'0 0.0
2017-Dec-17 02:00N 35°27' E 139°39'0 0.0
2017-Dec-17 01:30N 35°27' E 139°39'0 0.0
2017-Dec-17 01:00N 35°27' E 139°39'0 0.0
2017-Dec-16 11:58N 35°27' E 139°39'1 2.3
2017-Dec-16 11:30N 35°28' E 139°39'2 3.9
2017-Dec-16 11:01N 35°28' E 139°41'1 2.7
2017-Dec-16 10:30N 35°27' E 139°41'1 2.6
2017-Dec-16 10:01N 35°27' E 139°39'0 0.0
2017-Dec-16 09:30N 35°27' E 139°39'0 0.0
2017-Dec-16 09:00N 35°27' E 139°39'0 0.0
2017-Dec-16 08:31N 35°27' E 139°39'1 2.4
2017-Dec-16 08:01N 35°28' E 139°39'3 6.1
2017-Dec-16 07:31N 35°28' E 139°42'3 5.8
2017-Dec-16 07:01N 35°27' E 139°39'0 0.0
2017-Dec-16 06:31N 35°27' E 139°39'1 2.7
2017-Dec-16 06:01N 35°27' E 139°41'1 2.7
2017-Dec-16 05:31N 35°27' E 139°39'1 1.0
2017-Dec-16 05:01N 35°27' E 139°39'1 1.0
2017-Dec-16 04:30N 35°27' E 139°39'3 6.0
2017-Dec-16 04:01N 35°28' E 139°43'3 6.4
2017-Dec-16 03:30N 35°27' E 139°39'1 1.0
2017-Dec-16 03:01N 35°27' E 139°39'0 0.0
2017-Dec-16 02:31N 35°27' E 139°39'0 0.0
2017-Dec-16 02:01N 35°27' E 139°39'0 0.0
2017-Dec-16 01:31N 35°27' E 139°39'0 0.0
2017-Dec-16 01:01N 35°27' E 139°39'0 0.0
2017-Dec-16 00:31N 35°27' E 139°39'0 0.0
2017-Dec-15 12:00N 35°27' E 139°39'2 3.7
2017-Dec-15 11:31N 35°28' E 139°41'2 3.7
2017-Dec-15 11:01N 35°27' E 139°42'3 5.6
2017-Dec-15 10:30N 35°27' E 139°39'1 1.4
2017-Dec-15 10:01N 35°27' E 139°39'0 0.0
2017-Dec-15 09:31N 35°27' E 139°39'0 0.0
2017-Dec-15 09:00N 35°27' E 139°39'0 0.0
2017-Dec-15 08:30N 35°27' E 139°39'3 6.1
2017-Dec-15 08:01N 35°28' E 139°43'3 6.6
2017-Dec-15 07:31N 35°27' E 139°39'1 1.0
2017-Dec-15 07:00N 35°27' E 139°39'0 0.0
2017-Dec-15 06:31N 35°27' E 139°39'3 5.9
2017-Dec-15 06:00N 35°28' E 139°43'3 5.9
2017-Dec-15 05:30N 35°27' E 139°39'0 0.0
2017-Dec-15 05:01N 35°27' E 139°39'0 0.0
2017-Dec-15 04:31N 35°27' E 139°39'3 5.7
2017-Dec-15 04:01N 35°28' E 139°42'3 1.9
2017-Dec-15 02:31N 35°27' E 139°39'0 0.0
2017-Dec-15 01:01N 35°27' E 139°39'0 0.0
2017-Dec-15 00:31N 35°27' E 139°39'0 0.0
2017-Dec-14 11:58N 35°27' E 139°39'1 1.7
2017-Dec-14 11:30N 35°28' E 139°39'3 5.2
2017-Dec-14 11:00N 35°28' E 139°42'2 4.6
2017-Dec-14 10:31N 35°27' E 139°40'1 1.5
2017-Dec-14 10:00N 35°27' E 139°39'0 0.1
2017-Dec-14 09:30N 35°27' E 139°39'0 0.1
2017-Dec-14 09:00N 35°27' E 139°39'0 0.0
2017-Dec-14 08:30N 35°27' E 139°39'0 0.0
2017-Dec-14 08:00N 35°27' E 139°39'3 5.8
2017-Dec-14 07:31N 35°28' E 139°42'3 5.8
2017-Dec-14 07:00N 35°27' E 139°39'0 0.0
2017-Dec-14 06:31N 35°27' E 139°39'3 5.7
2017-Dec-14 06:00N 35°28' E 139°42'3 5.7
2017-Dec-14 05:30N 35°27' E 139°39'0 0.0
2017-Dec-14 05:01N 35°27' E 139°39'0 0.0
2017-Dec-14 04:30N 35°27' E 139°39'2 4.1
2017-Dec-14 04:00N 35°28' E 139°41'1 2.0
2017-Dec-14 03:31N 35°27' E 139°40'1 2.2
2017-Dec-14 03:00N 35°27' E 139°39'0 0.0
2017-Dec-14 02:30N 35°27' E 139°39'0 0.0
2017-Dec-14 02:00N 35°27' E 139°39'0 0.0
2017-Dec-14 01:30N 35°27' E 139°39'0 0.0
2017-Dec-14 01:00N 35°27' E 139°39'0 0.0
2017-Dec-14 00:30N 35°27' E 139°39'0 0.0
2017-Dec-13 11:58N 35°27' E 139°39'1 1.9
2017-Dec-13 11:31N 35°28' E 139°39'3 5.2
2017-Dec-13 11:01N 35°28' E 139°42'2 3.5
2017-Dec-13 10:31N 35°27' E 139°40'1 2.3
2017-Dec-13 10:01N 35°27' E 139°39'0 0.0
2017-Dec-13 09:30N 35°27' E 139°39'0 0.0
2017-Dec-13 09:01N 35°27' E 139°39'0 0.0
2017-Dec-13 08:30N 35°27' E 139°39'3 5.7
2017-Dec-13 08:01N 35°27' E 139°42'3 6.2
2017-Dec-13 07:31N 35°27' E 139°39'1 1.0
2017-Dec-13 07:01N 35°27' E 139°39'0 0.0
2017-Dec-13 06:31N 35°27' E 139°39'3 5.8
2017-Dec-13 06:01N 35°28' E 139°42'3 5.7
2017-Dec-13 05:30N 35°27' E 139°39'0 0.0
2017-Dec-13 05:00N 35°27' E 139°39'0 0.0
2017-Dec-13 04:30N 35°27' E 139°39'3 5.8
2017-Dec-13 04:01N 35°28' E 139°42'3 5.6
2017-Dec-13 03:30N 35°27' E 139°39'1 1.3
2017-Dec-13 03:01N 35°27' E 139°39'0 0.0
2017-Dec-13 02:31N 35°27' E 139°39'0 0.0
2017-Dec-13 02:01N 35°27' E 139°39'0 0.0
2017-Dec-13 01:31N 35°27' E 139°39'0 0.0
2017-Dec-13 01:01N 35°27' E 139°39'0 0.0
2017-Dec-13 00:31N 35°27' E 139°39'0 0.0
2017-Dec-13 00:01N 35°27' E 139°39'0 0.0
2017-Dec-12 11:58N 35°27' E 139°39'1 2.7
2017-Dec-12 11:31N 35°28' E 139°40'2 4.0
2017-Dec-12 11:00N 35°27' E 139°42'3 5.6
2017-Dec-12 10:31N 35°27' E 139°39'1 1.2
2017-Dec-12 10:00N 35°27' E 139°39'0 0.0
2017-Dec-12 09:30N 35°27' E 139°39'0 0.8
2017-Dec-12 09:00N 35°27' E 139°39'0 0.8
2017-Dec-12 08:31N 35°27' E 139°39'3 5.7
2017-Dec-12 08:00N 35°28' E 139°42'3 5.7
2017-Dec-12 07:31N 35°27' E 139°39'1 1.1
2017-Dec-12 07:01N 35°27' E 139°39'0 0.0
2017-Dec-12 06:30N 35°27' E 139°39'3 5.7
2017-Dec-12 06:00N 35°28' E 139°42'3 5.6
2017-Dec-12 05:30N 35°27' E 139°39'0 0.4
2017-Dec-12 05:01N 35°27' E 139°39'0 0.4
2017-Dec-12 04:30N 35°27' E 139°39'3 6.0
2017-Dec-12 04:01N 35°28' E 139°43'3 6.5
2017-Dec-12 03:31N 35°27' E 139°39'1 1.0
2017-Dec-12 03:01N 35°27' E 139°39'0 0.0
2017-Dec-12 02:30N 35°27' E 139°39'0 0.0
2017-Dec-12 02:00N 35°27' E 139°39'0 0.0
2017-Dec-12 01:30N 35°27' E 139°39'0 0.0
2017-Dec-12 01:01N 35°27' E 139°39'0 0.0
2017-Dec-12 00:30N 35°27' E 139°39'0 0.0
2017-Dec-11 11:56N 35°27' E 139°39'1 2.6
2017-Dec-11 11:30N 35°28' E 139°39'0 0.8
2017-Dec-11 11:00N 35°28' E 139°39'1 1.2
2017-Dec-11 10:30N 35°28' E 139°40'1 2.6
2017-Dec-11 10:00N 35°27' E 139°39'0 0.0
2017-Dec-11 09:30N 35°27' E 139°39'0 0.0
2017-Dec-11 09:00N 35°27' E 139°39'0 0.0
2017-Dec-11 08:30N 35°27' E 139°39'1 2.3
2017-Dec-11 08:01N 35°28' E 139°39'1 2.4
2017-Dec-11 07:30N 35°27' E 139°40'1 1.9
2017-Dec-11 07:00N 35°27' E 139°39'0 0.0
2017-Dec-11 06:30N 35°27' E 139°39'1 2.2
2017-Dec-11 06:00N 35°28' E 139°40'1 2.2
2017-Dec-11 05:30N 35°27' E 139°39'0 0.0
2017-Dec-11 05:00N 35°27' E 139°39'0 0.0
2017-Dec-11 04:31N 35°27' E 139°39'1 2.1
2017-Dec-11 04:00N 35°28' E 139°40'1 1.5
2017-Dec-11 03:30N 35°27' E 139°39'1 1.5
2017-Dec-11 03:00N 35°27' E 139°39'0 0.0
2017-Dec-11 02:30N 35°27' E 139°39'0 0.0
2017-Dec-11 02:00N 35°27' E 139°39'0 0.0
2017-Dec-11 01:30N 35°27' E 139°39'0 0.0
2017-Dec-11 01:00N 35°27' E 139°39'0 0.0
2017-Dec-11 00:30N 35°27' E 139°39'0 0.0
2017-Dec-10 11:57N 35°27' E 139°39'1 2.3
2017-Dec-10 11:30N 35°28' E 139°39'1 2.6
2017-Dec-10 11:00N 35°27' E 139°40'1 2.3
2017-Dec-10 10:30N 35°28' E 139°39'1 1.7
2017-Dec-10 10:00N 35°27' E 139°39'0 0.0
2017-Dec-10 09:30N 35°27' E 139°39'0 0.0
2017-Dec-10 09:00N 35°27' E 139°39'0 0.0
2017-Dec-10 08:31N 35°27' E 139°39'1 2.1
2017-Dec-10 08:00N 35°28' E 139°39'3 5.9
2017-Dec-10 07:30N 35°28' E 139°42'3 5.7
2017-Dec-10 07:00N 35°27' E 139°39'0 0.0
2017-Dec-10 06:30N 35°27' E 139°39'3 5.7
2017-Dec-10 06:00N 35°28' E 139°42'3 5.7
2017-Dec-10 05:30N 35°27' E 139°39'0 0.0
2017-Dec-10 05:00N 35°27' E 139°39'0 0.2
2017-Dec-10 04:30N 35°27' E 139°39'3 5.7
2017-Dec-10 04:01N 35°28' E 139°43'3 6.2
2017-Dec-10 03:30N 35°27' E 139°39'1 1.0
2017-Dec-10 03:00N 35°27' E 139°39'0 0.0
2017-Dec-10 02:30N 35°27' E 139°39'0 0.0
2017-Dec-10 02:00N 35°27' E 139°39'0 0.0
2017-Dec-10 01:30N 35°27' E 139°39'0 0.0
2017-Dec-10 01:00N 35°27' E 139°39'0 0.0
2017-Dec-10 00:30N 35°27' E 139°39'0 0.0
2017-Dec-09 12:35N 35°27' E 139°39'0 3.2
2017-Dec-09 12:30N 35°27' E 139°39'0 0.5
2017-Dec-09 12:00N 35°27' E 139°39'1 2.3
2017-Dec-09 11:30N 35°28' E 139°40'2 4.0
2017-Dec-09 11:00N 35°27' E 139°42'3 5.3
2017-Dec-09 10:30N 35°27' E 139°39'1 1.3
2017-Dec-09 10:01N 35°27' E 139°39'0 0.0
2017-Dec-09 09:30N 35°27' E 139°39'0 0.0
2017-Dec-09 09:00N 35°27' E 139°39'0 0.0
2017-Dec-09 08:30N 35°27' E 139°39'1 2.1
2017-Dec-09 08:00N 35°28' E 139°39'3 5.4
2017-Dec-09 07:30N 35°28' E 139°42'3 5.7
2017-Dec-09 07:00N 35°27' E 139°39'0 0.0
2017-Dec-09 06:31N 35°27' E 139°39'1 2.0
2017-Dec-09 06:00N 35°28' E 139°39'1 2.0
2017-Dec-09 05:31N 35°27' E 139°39'0 1.0
2017-Dec-09 05:01N 35°27' E 139°39'0 1.0
2017-Dec-09 04:31N 35°27' E 139°39'3 5.6
2017-Dec-09 04:00N 35°28' E 139°42'3 5.9
2017-Dec-09 03:30N 35°27' E 139°39'1 1.0
2017-Dec-09 03:01N 35°27' E 139°39'0 0.0
2017-Dec-09 02:31N 35°27' E 139°39'0 0.0
2017-Dec-09 02:00N 35°27' E 139°39'0 0.0
2017-Dec-09 01:30N 35°27' E 139°39'0 0.0
2017-Dec-09 01:00N 35°27' E 139°39'0 0.0
2017-Dec-09 00:30N 35°27' E 139°39'0 0.0
2017-Dec-09 00:00N 35°27' E 139°39'  

Dump ship's entire track history